sensor_id;sensor_type;location;lat;lon;timestamp;pressure;altitude;pressure_sealevel;temperature;humidity
72086;BME280;64750;52.134;5.424;2023-08-12T00:01:51;101922.63;;;21.69;78.22
72086;BME280;64750;52.134;5.424;2023-08-12T00:04:17;101926.31;;;21.68;78.55
72086;BME280;64750;52.134;5.424;2023-08-12T00:06:44;101930.81;;;21.67;78.48
72086;BME280;64750;52.134;5.424;2023-08-12T00:09:10;101928.28;;;21.66;78.74
72086;BME280;64750;52.134;5.424;2023-08-12T00:11:41;101930.97;;;21.66;78.60
72086;BME280;64750;52.134;5.424;2023-08-12T00:14:08;101922.09;;;21.65;78.67
72086;BME280;64750;52.134;5.424;2023-08-12T00:16:35;101925.75;;;21.64;78.93
72086;BME280;64750;52.134;5.424;2023-08-12T00:19:01;101931.25;;;21.62;78.82
72086;BME280;64750;52.134;5.424;2023-08-12T00:21:28;101927.84;;;21.60;78.82
72086;BME280;64750;52.134;5.424;2023-08-12T00:23:54;101920.13;;;21.57;79.05
72086;BME280;64750;52.134;5.424;2023-08-12T00:26:21;101920.13;;;21.57;78.94
72086;BME280;64750;52.134;5.424;2023-08-12T00:28:49;101922.91;;;21.56;78.92
72086;BME280;64750;52.134;5.424;2023-08-12T00:31:16;101927.44;;;21.55;78.81
72086;BME280;64750;52.134;5.424;2023-08-12T00:33:42;101914.06;;;21.55;78.84
72086;BME280;64750;52.134;5.424;2023-08-12T00:36:09;101915.00;;;21.54;78.77
72086;BME280;64750;52.134;5.424;2023-08-12T00:38:35;101910.63;;;21.53;78.97
72086;BME280;64750;52.134;5.424;2023-08-12T00:41:03;101910.63;;;21.53;79.02
72086;BME280;64750;52.134;5.424;2023-08-12T00:43:29;101902.75;;;21.52;79.21
72086;BME280;64750;52.134;5.424;2023-08-12T00:45:56;101897.69;;;21.49;79.14
72086;BME280;64750;52.134;5.424;2023-08-12T00:48:22;101893.56;;;21.44;79.58
72086;BME280;64750;52.134;5.424;2023-08-12T00:50:49;101888.22;;;21.44;79.52
72086;BME280;64750;52.134;5.424;2023-08-12T00:53:16;101886.56;;;21.43;79.28
72086;BME280;64750;52.134;5.424;2023-08-12T00:55:43;101881.22;;;21.43;79.29
72086;BME280;64750;52.134;5.424;2023-08-12T00:58:10;101879.50;;;21.42;79.37
72086;BME280;64750;52.134;5.424;2023-08-12T01:00:37;101883.72;;;21.35;79.77
72086;BME280;64750;52.134;5.424;2023-08-12T01:03:04;101881.47;;;21.30;79.98
72086;BME280;64750;52.134;5.424;2023-08-12T01:05:32;101885.13;;;21.29;80.13
72086;BME280;64750;52.134;5.424;2023-08-12T01:07:59;101878.06;;;21.28;80.12
72086;BME280;64750;52.134;5.424;2023-08-12T01:10:31;101875.41;;;21.28;80.20
72086;BME280;64750;52.134;5.424;2023-08-12T01:16:05;101867.09;;;21.22;80.30
72086;BME280;64750;52.134;5.424;2023-08-12T01:18:33;101871.84;;;21.18;80.40
72086;BME280;64750;52.134;5.424;2023-08-12T01:21:01;101859.47;;;21.17;80.54
72086;BME280;64750;52.134;5.424;2023-08-12T01:23:30;101867.50;;;21.17;80.52
72086;BME280;64750;52.134;5.424;2023-08-12T01:25:56;101862.44;;;21.14;80.60
72086;BME280;64750;52.134;5.424;2023-08-12T01:28:23;101854.41;;;21.14;80.59
72086;BME280;64750;52.134;5.424;2023-08-12T01:31:02;101859.75;;;21.14;80.60
72086;BME280;64750;52.134;5.424;2023-08-12T01:33:58;101861.31;;;21.17;80.38
72086;BME280;64750;52.134;5.424;2023-08-12T01:36:24;101856.78;;;21.17;80.15
72086;BME280;64750;52.134;5.424;2023-08-12T01:38:51;101852.31;;;21.18;80.46
72086;BME280;64750;52.134;5.424;2023-08-12T01:41:19;101847.94;;;21.17;80.48
72086;BME280;64750;52.134;5.424;2023-08-12T01:43:46;101841.72;;;21.16;80.46
72086;BME280;64750;52.134;5.424;2023-08-12T01:46:13;101829.50;;;21.13;80.60
72086;BME280;64750;52.134;5.424;2023-08-12T01:48:39;101832.16;;;21.13;80.80
72086;BME280;64750;52.134;5.424;2023-08-12T01:51:06;101839.34;;;21.13;81.00
72086;BME280;64750;52.134;5.424;2023-08-12T01:53:32;101832.31;;;21.12;81.04
72086;BME280;64750;52.134;5.424;2023-08-12T01:55:59;101828.22;;;21.08;81.16
72086;BME280;64750;52.134;5.424;2023-08-12T01:58:26;101825.81;;;21.05;81.29
72086;BME280;64750;52.134;5.424;2023-08-12T02:00:55;101828.47;;;21.05;81.32
72086;BME280;64750;52.134;5.424;2023-08-12T02:03:21;101820.34;;;21.06;81.27
72086;BME280;64750;52.134;5.424;2023-08-12T02:05:48;101818.50;;;21.07;81.28
72086;BME280;64750;52.134;5.424;2023-08-12T02:08:14;101813.88;;;21.09;81.25
72086;BME280;64750;52.134;5.424;2023-08-12T02:10:41;101814.56;;;21.11;81.30
72086;BME280;64750;52.134;5.424;2023-08-12T02:13:07;101806.56;;;21.11;81.32
72086;BME280;64750;52.134;5.424;2023-08-12T02:15:34;101811.91;;;21.11;81.42
72086;BME280;64750;52.134;5.424;2023-08-12T02:18:00;101805.88;;;21.09;81.46
72086;BME280;64750;52.134;5.424;2023-08-12T02:20:27;101815.53;;;21.10;81.63
72086;BME280;64750;52.134;5.424;2023-08-12T02:22:53;101807.69;;;21.08;81.68
72086;BME280;64750;52.134;5.424;2023-08-12T02:25:20;101808.09;;;21.04;81.94
72086;BME280;64750;52.134;5.424;2023-08-12T02:27:46;101810.19;;;21.00;82.19
72086;BME280;64750;52.134;5.424;2023-08-12T02:30:13;101796.13;;;20.98;82.25
72086;BME280;64750;52.134;5.424;2023-08-12T02:32:39;101798.66;;;21.00;82.28
72086;BME280;64750;52.134;5.424;2023-08-12T02:35:09;101791.34;;;21.02;82.47
72086;BME280;64750;52.134;5.424;2023-08-12T02:37:36;101796.69;;;21.02;82.36
72086;BME280;64750;52.134;5.424;2023-08-12T02:40:04;101796.69;;;21.02;82.49
72086;BME280;64750;52.134;5.424;2023-08-12T02:42:33;101786.97;;;21.01;82.47
72086;BME280;64750;52.134;5.424;2023-08-12T02:45:00;101787.69;;;21.03;82.42
72086;BME280;64750;52.134;5.424;2023-08-12T02:47:27;101789.66;;;21.01;82.58
72086;BME280;64750;52.134;5.424;2023-08-12T02:49:54;101785.28;;;21.00;82.69
72086;BME280;64750;52.134;5.424;2023-08-12T02:52:20;101785.44;;;20.98;82.79
72086;BME280;64750;52.134;5.424;2023-08-12T02:54:47;101776.56;;;20.97;82.76
72086;BME280;64750;52.134;5.424;2023-08-12T02:57:13;101788.25;;;20.96;82.91
72086;BME280;64750;52.134;5.424;2023-08-12T02:59:40;101775.88;;;20.95;82.94
72086;BME280;64750;52.134;5.424;2023-08-12T03:02:07;101775.88;;;20.95;83.19
72086;BME280;64750;52.134;5.424;2023-08-12T03:04:33;101768.56;;;20.97;83.21
72086;BME280;64750;52.134;5.424;2023-08-12T03:07:00;101764.06;;;20.98;83.22
72086;BME280;64750;52.134;5.424;2023-08-12T03:09:26;101760.41;;;20.99;83.09
72086;BME280;64750;52.134;5.424;2023-08-12T03:11:53;101760.53;;;20.97;83.22
72086;BME280;64750;52.134;5.424;2023-08-12T03:14:19;101760.53;;;20.97;83.26
72086;BME280;64750;52.134;5.424;2023-08-12T03:16:46;101761.53;;;20.96;83.73
72086;BME280;64750;52.134;5.424;2023-08-12T03:19:12;101753.66;;;20.95;83.82
72086;BME280;64750;52.134;5.424;2023-08-12T03:21:39;101750.00;;;20.96;83.69
72086;BME280;64750;52.134;5.424;2023-08-12T03:24:06;101748.00;;;20.98;83.63
72086;BME280;64750;52.134;5.424;2023-08-12T03:26:32;101743.53;;;20.98;83.70
72086;BME280;64750;52.134;5.424;2023-08-12T03:28:59;101743.66;;;20.97;83.85
72086;BME280;64750;52.134;5.424;2023-08-12T03:31:25;101745.19;;;21.00;83.83
72086;BME280;64750;52.134;5.424;2023-08-12T03:33:52;101745.19;;;21.00;83.75
72086;BME280;64750;52.134;5.424;2023-08-12T03:36:18;101738.88;;;21.01;83.79
72086;BME280;64750;52.134;5.424;2023-08-12T03:38:44;101733.53;;;21.01;83.69
72086;BME280;64750;52.134;5.424;2023-08-12T03:41:11;101737.06;;;21.01;83.77
72086;BME280;64750;52.134;5.424;2023-08-12T03:43:38;101730.84;;;21.01;83.79
72086;BME280;64750;52.134;5.424;2023-08-12T03:46:04;101728.03;;;21.02;83.96
72086;BME280;64750;52.134;5.424;2023-08-12T03:48:31;101721.16;;;21.00;84.09
72086;BME280;64750;52.134;5.424;2023-08-12T03:50:58;101720.16;;;21.01;84.11
72086;BME280;64750;52.134;5.424;2023-08-12T03:53:24;101717.34;;;21.02;84.11
72086;BME280;64750;52.134;5.424;2023-08-12T03:55:51;101717.50;;;21.01;84.13
72086;BME280;64750;52.134;5.424;2023-08-12T03:58:17;101715.53;;;21.03;84.02
72086;BME280;64750;52.134;5.424;2023-08-12T04:00:44;101711.16;;;21.02;84.17
72086;BME280;64750;52.134;5.424;2023-08-12T04:03:10;101708.50;;;21.02;84.06
72086;BME280;64750;52.134;5.424;2023-08-12T04:05:37;101705.00;;;21.01;84.23
72086;BME280;64750;52.134;5.424;2023-08-12T04:08:04;101705.00;;;21.01;84.42
72086;BME280;64750;52.134;5.424;2023-08-12T04:10:30;101705.81;;;21.02;84.26
72086;BME280;64750;52.134;5.424;2023-08-12T04:12:57;101699.50;;;21.03;84.48
72086;BME280;64750;52.134;5.424;2023-08-12T04:15:24;101689.78;;;21.02;84.38
72086;BME280;64750;52.134;5.424;2023-08-12T04:17:50;101687.25;;;21.00;84.25
72086;BME280;64750;52.134;5.424;2023-08-12T04:20:18;101687.41;;;20.98;84.76
72086;BME280;64750;52.134;5.424;2023-08-12T04:22:44;101689.22;;;20.98;84.96
72086;BME280;64750;52.134;5.424;2023-08-12T04:25:15;101689.22;;;20.98;85.09
72086;BME280;64750;52.134;5.424;2023-08-12T04:27:41;101692.75;;;20.98;85.15
72086;BME280;64750;52.134;5.424;2023-08-12T04:30:08;101692.88;;;20.97;85.61
72086;BME280;64750;52.134;5.424;2023-08-12T04:32:35;101696.41;;;20.97;85.53
72086;BME280;64750;52.134;5.424;2023-08-12T04:35:02;101691.06;;;20.97;85.54
72086;BME280;64750;52.134;5.424;2023-08-12T04:37:29;101685.56;;;20.99;85.56
72086;BME280;64750;52.134;5.424;2023-08-12T04:39:56;101684.84;;;20.97;85.77
72086;BME280;64750;52.134;5.424;2023-08-12T04:42:23;101681.19;;;20.98;85.83
72086;BME280;64750;52.134;5.424;2023-08-12T04:44:49;101663.34;;;20.98;85.92
72086;BME280;64750;52.134;5.424;2023-08-12T04:47:16;101653.66;;;20.97;86.09
72086;BME280;64750;52.134;5.424;2023-08-12T04:49:42;101652.66;;;20.98;86.28
72086;BME280;64750;52.134;5.424;2023-08-12T04:52:09;101642.09;;;20.97;86.71
72086;BME280;64750;52.134;5.424;2023-08-12T04:54:35;101641.25;;;20.96;86.49
72086;BME280;64750;52.134;5.424;2023-08-12T04:57:01;101654.47;;;20.98;86.79
72086;BME280;64750;52.134;5.424;2023-08-12T04:59:28;101640.28;;;20.97;86.82
72086;BME280;64750;52.134;5.424;2023-08-12T05:01:54;101634.06;;;20.97;87.01
72086;BME280;64750;52.134;5.424;2023-08-12T05:04:41;101639.31;;;20.98;86.96
72086;BME280;64750;52.134;5.424;2023-08-12T05:07:07;101636.63;;;20.98;86.92
72086;BME280;64750;52.134;5.424;2023-08-12T05:09:34;101626.78;;;20.99;87.50
72086;BME280;64750;52.134;5.424;2023-08-12T05:12:00;101622.25;;;21.00;87.07
72086;BME280;64750;52.134;5.424;2023-08-12T05:14:27;101632.94;;;21.00;87.00
72086;BME280;64750;52.134;5.424;2023-08-12T05:16:53;101631.28;;;20.98;87.17
72086;BME280;64750;52.134;5.424;2023-08-12T05:19:20;101638.59;;;20.96;87.43
72086;BME280;64750;52.134;5.424;2023-08-12T05:21:46;101642.09;;;20.97;87.41
72086;BME280;64750;52.134;5.424;2023-08-12T05:24:13;101640.28;;;20.97;87.42
72086;BME280;64750;52.134;5.424;2023-08-12T05:26:40;101640.28;;;20.97;87.44
72086;BME280;64750;52.134;5.424;2023-08-12T05:29:06;101639.16;;;21.00;87.21
72086;BME280;64750;52.134;5.424;2023-08-12T05:31:32;101640.97;;;21.00;87.28
72086;BME280;64750;52.134;5.424;2023-08-12T05:33:59;101638.31;;;21.00;87.35
72086;BME280;64750;52.134;5.424;2023-08-12T05:36:25;101633.97;;;20.98;87.39
72086;BME280;64750;52.134;5.424;2023-08-12T05:38:52;101636.63;;;20.98;87.41
72086;BME280;64750;52.134;5.424;2023-08-12T05:41:18;101638.59;;;20.96;87.74
72086;BME280;64750;52.134;5.424;2023-08-12T05:43:45;101641.25;;;20.96;87.69
72086;BME280;64750;52.134;5.424;2023-08-12T05:46:12;101635.22;;;20.94;87.66
72086;BME280;64750;52.134;5.424;2023-08-12T05:48:38;101632.81;;;20.91;87.79
72086;BME280;64750;52.134;5.424;2023-08-12T05:51:05;101640.84;;;20.91;88.06
72086;BME280;64750;52.134;5.424;2023-08-12T05:53:31;101641.69;;;20.92;88.01
72086;BME280;64750;52.134;5.424;2023-08-12T05:55:59;101633.81;;;20.90;88.17
72086;BME280;64750;52.134;5.424;2023-08-12T05:58:25;101632.97;;;20.90;88.29
72086;BME280;64750;52.134;5.424;2023-08-12T06:00:52;101632.13;;;20.89;88.49
72086;BME280;64750;52.134;5.424;2023-08-12T06:03:18;101632.41;;;20.86;88.65
72086;BME280;64750;52.134;5.424;2023-08-12T06:05:46;101631.84;;;20.83;88.95
72086;BME280;64750;52.134;5.424;2023-08-12T06:08:13;101634.38;;;20.84;89.30
72086;BME280;64750;52.134;5.424;2023-08-12T06:10:40;101633.38;;;20.85;89.11
72086;BME280;64750;52.134;5.424;2023-08-12T06:13:07;101639.44;;;20.87;89.18
72086;BME280;64750;52.134;5.424;2023-08-12T06:15:33;101633.53;;;20.84;89.18
72086;BME280;64750;52.134;5.424;2023-08-12T06:18:01;101631.84;;;20.83;89.37
72086;BME280;64750;52.134;5.424;2023-08-12T06:20:28;101635.38;;;20.83;89.58
72086;BME280;64750;52.134;5.424;2023-08-12T06:22:55;101629.31;;;20.81;89.70
72086;BME280;64750;52.134;5.424;2023-08-12T06:25:21;101629.31;;;20.81;89.60
72086;BME280;64750;52.134;5.424;2023-08-12T06:27:48;101626.66;;;20.81;89.61
72086;BME280;64750;52.134;5.424;2023-08-12T06:30:14;101629.31;;;20.81;89.81
72086;BME280;64750;52.134;5.424;2023-08-12T06:32:41;101632.28;;;20.78;89.92
72086;BME280;64750;52.134;5.424;2023-08-12T06:35:08;101639.72;;;20.74;89.82
72086;BME280;64750;52.134;5.424;2023-08-12T06:37:34;101639.72;;;20.74;89.72
72086;BME280;64750;52.134;5.424;2023-08-12T06:40:02;101645.22;;;20.73;89.85
72086;BME280;64750;52.134;5.424;2023-08-12T06:42:30;101642.41;;;20.74;89.60
72086;BME280;64750;52.134;5.424;2023-08-12T06:44:58;101643.38;;;20.73;89.98
72086;BME280;64750;52.134;5.424;2023-08-12T06:47:26;101637.56;;;20.68;90.25
72086;BME280;64750;52.134;5.424;2023-08-12T06:49:54;101637.97;;;20.63;90.42
72086;BME280;64750;52.134;5.424;2023-08-12T06:52:21;101634.19;;;20.66;90.58
72086;BME280;64750;52.134;5.424;2023-08-12T06:54:47;101622.38;;;20.69;90.44
72086;BME280;64750;52.134;5.424;2023-08-12T06:57:13;101622.38;;;20.69;90.13
72086;BME280;64750;52.134;5.424;2023-08-12T06:59:40;101622.28;;;20.70;90.39
72086;BME280;64750;52.134;5.424;2023-08-12T07:02:07;101617.78;;;20.71;90.52
72086;BME280;64750;52.134;5.424;2023-08-12T07:04:33;101618.63;;;20.71;90.43
72086;BME280;64750;52.134;5.424;2023-08-12T07:07:00;101621.16;;;20.73;90.12
72086;BME280;64750;52.134;5.424;2023-08-12T07:09:26;101615.13;;;20.71;90.23
72086;BME280;64750;52.134;5.424;2023-08-12T07:11:53;101616.06;;;20.70;90.38
72086;BME280;64750;52.134;5.424;2023-08-12T07:14:19;101611.69;;;20.69;90.59
72086;BME280;64750;52.134;5.424;2023-08-12T07:16:46;101607.31;;;20.68;90.39
72086;BME280;64750;52.134;5.424;2023-08-12T07:19:12;101606.34;;;20.69;90.62
72086;BME280;64750;52.134;5.424;2023-08-12T07:21:42;101609.03;;;20.69;90.36
72086;BME280;64750;52.134;5.424;2023-08-12T07:24:08;101599.19;;;20.69;90.56
72086;BME280;64750;52.134;5.424;2023-08-12T07:26:35;101595.59;;;20.70;90.63
72086;BME280;64750;52.134;5.424;2023-08-12T07:29:01;101601.75;;;20.71;90.49
72086;BME280;64750;52.134;5.424;2023-08-12T07:31:28;101592.00;;;20.70;90.43
72086;BME280;64750;52.134;5.424;2023-08-12T07:33:54;101597.34;;;20.70;90.72
72086;BME280;64750;52.134;5.424;2023-08-12T07:36:21;101584.91;;;20.70;90.71
72086;BME280;64750;52.134;5.424;2023-08-12T07:38:47;101590.25;;;20.70;90.88
72086;BME280;64750;52.134;5.424;2023-08-12T07:41:14;101583.19;;;20.69;90.45
72086;BME280;64750;52.134;5.424;2023-08-12T07:43:40;101587.56;;;20.70;90.81
72086;BME280;64750;52.134;5.424;2023-08-12T07:46:06;101576.97;;;20.69;90.83
72086;BME280;64750;52.134;5.424;2023-08-12T07:48:38;101580.75;;;20.66;90.81
72086;BME280;64750;52.134;5.424;2023-08-12T07:51:05;101577.53;;;20.62;90.53
72086;BME280;64750;52.134;5.424;2023-08-12T07:53:31;101576.69;;;20.62;90.73
72086;BME280;64750;52.134;5.424;2023-08-12T07:55:58;101579.50;;;20.60;90.97
72086;BME280;64750;52.134;5.424;2023-08-12T07:58:24;101575.88;;;20.61;90.90
72086;BME280;64750;52.134;5.424;2023-08-12T08:00:54;101585.53;;;20.62;90.75
72086;BME280;64750;52.134;5.424;2023-08-12T08:03:21;101595.25;;;20.63;90.67
72086;BME280;64750;52.134;5.424;2023-08-12T08:05:47;101591.03;;;20.61;90.97
72086;BME280;64750;52.134;5.424;2023-08-12T08:08:14;101592.88;;;20.60;90.76
72086;BME280;64750;52.134;5.424;2023-08-12T08:10:41;101587.66;;;20.59;91.28
72086;BME280;64750;52.134;5.424;2023-08-12T08:13:07;101583.16;;;20.59;90.70
72086;BME280;64750;52.134;5.424;2023-08-12T08:15:34;101588.50;;;20.59;91.20
72086;BME280;64750;52.134;5.424;2023-08-12T08:18:00;101586.81;;;20.58;91.20
72086;BME280;64750;52.134;5.424;2023-08-12T08:20:31;101591.03;;;20.61;90.68
72086;BME280;64750;52.134;5.424;2023-08-12T08:22:57;101584.00;;;20.60;91.00
72086;BME280;64750;52.134;5.424;2023-08-12T08:25:24;101580.50;;;20.59;90.91
72086;BME280;64750;52.134;5.424;2023-08-12T08:27:50;101584.84;;;20.60;91.26
72086;BME280;64750;52.134;5.424;2023-08-12T08:30:17;101586.53;;;20.61;91.12
72086;BME280;64750;52.134;5.424;2023-08-12T08:32:44;101591.59;;;20.64;91.21
72086;BME280;64750;52.134;5.424;2023-08-12T08:35:13;101584.56;;;20.63;91.60
72086;BME280;64750;52.134;5.424;2023-08-12T08:37:40;101585.28;;;20.65;91.58
72086;BME280;64750;52.134;5.424;2023-08-12T08:40:08;101584.56;;;20.63;91.67
72086;BME280;64750;52.134;5.424;2023-08-12T08:42:34;101588.50;;;20.59;91.65
72086;BME280;64750;52.134;5.424;2023-08-12T08:45:02;101597.50;;;20.58;91.91
72086;BME280;64750;52.134;5.424;2023-08-12T08:47:30;101593.28;;;20.56;92.47
72086;BME280;64750;52.134;5.424;2023-08-12T08:49:58;101592.16;;;20.58;91.92
72086;BME280;64750;52.134;5.424;2023-08-12T08:52:26;101593.84;;;20.59;92.12
72086;BME280;64750;52.134;5.424;2023-08-12T08:54:52;101600.72;;;20.62;91.73
72086;BME280;64750;52.134;5.424;2023-08-12T08:57:19;101608.75;;;20.62;91.58
72086;BME280;64750;52.134;5.424;2023-08-12T09:00:06;101604.53;;;20.59;92.33
72086;BME280;64750;52.134;5.424;2023-08-12T09:02:41;101609.88;;;20.59;92.43
72086;BME280;64750;52.134;5.424;2023-08-12T09:05:10;101615.22;;;20.59;92.47
72086;BME280;64750;52.134;5.424;2023-08-12T09:07:38;101626.44;;;20.43;91.84
72086;BME280;64750;52.134;5.424;2023-08-12T09:10:05;101639.06;;;20.31;90.79
72086;BME280;64750;52.134;5.424;2023-08-12T09:12:33;101643.47;;;20.02;89.23
72086;BME280;64750;52.134;5.424;2023-08-12T09:15:00;101647.91;;;19.91;87.28
72086;BME280;64750;52.134;5.424;2023-08-12T09:17:27;101647.91;;;19.70;85.75
72086;BME280;64750;52.134;5.424;2023-08-12T09:19:53;101661.22;;;19.60;86.23
72086;BME280;64750;52.134;5.424;2023-08-12T09:22:20;101654.38;;;19.46;86.16
72086;BME280;64750;52.134;5.424;2023-08-12T09:24:50;101643.72;;;19.25;84.59
72086;BME280;64750;52.134;5.424;2023-08-12T09:27:17;101628.59;;;19.26;86.75
72086;BME280;64750;52.134;5.424;2023-08-12T09:29:44;101632.16;;;19.36;86.87
72086;BME280;64750;52.134;5.424;2023-08-12T09:32:12;101631.56;;;19.32;86.75
72086;BME280;64750;52.134;5.424;2023-08-12T09:34:51;101645.41;;;19.47;87.56
72086;BME280;64750;52.134;5.424;2023-08-12T09:37:19;101655.94;;;19.49;86.83
72086;BME280;64750;52.134;5.424;2023-08-12T09:39:46;101649.44;;;19.42;86.08
72086;BME280;64750;52.134;5.424;2023-08-12T09:42:13;101664.97;;;19.37;86.26
72086;BME280;64750;52.134;5.424;2023-08-12T09:44:40;101662.97;;;19.29;86.44
72086;BME280;64750;52.134;5.424;2023-08-12T09:47:08;101667.53;;;19.38;87.55
72086;BME280;64750;52.134;5.424;2023-08-12T09:49:35;101672.66;;;19.51;87.84
72086;BME280;64750;52.134;5.424;2023-08-12T09:52:03;101666.09;;;19.55;87.70
72086;BME280;64750;52.134;5.424;2023-08-12T09:54:36;101666.78;;;19.57;86.98
72086;BME280;64750;52.134;5.424;2023-08-12T09:57:04;101677.59;;;19.56;87.70
72086;BME280;64750;52.134;5.424;2023-08-12T09:59:34;101689.22;;;19.55;86.90
72086;BME280;64750;52.134;5.424;2023-08-12T10:02:05;101685.00;;;19.52;87.17
72086;BME280;64750;52.134;5.424;2023-08-12T10:04:41;101695.47;;;19.65;86.98
72086;BME280;64750;52.134;5.424;2023-08-12T10:07:11;101694.63;;;19.64;85.93
72086;BME280;64750;52.134;5.424;2023-08-12T10:09:41;101695.44;;;19.55;85.75
72086;BME280;64750;52.134;5.424;2023-08-12T10:12:09;101681.13;;;19.56;86.43
72086;BME280;64750;52.134;5.424;2023-08-12T10:14:37;101683.91;;;19.55;86.31
72086;BME280;64750;52.134;5.424;2023-08-12T10:17:04;101667.38;;;19.61;87.37
72086;BME280;64750;52.134;5.424;2023-08-12T10:19:32;101654.81;;;19.73;88.16
72086;BME280;64750;52.134;5.424;2023-08-12T10:21:59;101659.13;;;19.85;88.96
72086;BME280;64750;52.134;5.424;2023-08-12T10:24:27;101670.81;;;19.94;88.90
72086;BME280;64750;52.134;5.424;2023-08-12T10:26:54;101669.41;;;19.99;87.33
72086;BME280;64750;52.134;5.424;2023-08-12T10:29:23;101673.25;;;20.07;86.93
72086;BME280;64750;52.134;5.424;2023-08-12T10:31:50;101673.13;;;20.08;85.72
72086;BME280;64750;52.134;5.424;2023-08-12T10:34:21;101675.84;;;20.18;85.80
72086;BME280;64750;52.134;5.424;2023-08-12T10:36:48;101674.44;;;20.24;85.55
72086;BME280;64750;52.134;5.424;2023-08-12T10:39:31;101665.06;;;20.39;84.97
72086;BME280;64750;52.134;5.424;2023-08-12T10:41:58;101672.66;;;20.44;83.29
72086;BME280;64750;52.134;5.424;2023-08-12T10:47:13;101671.09;;;20.31;84.29
72086;BME280;64750;52.134;5.424;2023-08-12T10:49:44;101673.31;;;20.26;82.98
72086;BME280;64750;52.134;5.424;2023-08-12T10:52:32;101686.50;;;20.18;81.97
72086;BME280;64750;52.134;5.424;2023-08-12T10:55:35;101675.25;;;20.14;82.41
72086;BME280;64750;52.134;5.424;2023-08-12T10:58:08;101673.84;;;20.20;82.59
72086;BME280;64750;52.134;5.424;2023-08-12T11:00:35;101674.47;;;20.33;83.30
72086;BME280;64750;52.134;5.424;2023-08-12T11:03:05;101667.88;;;20.38;81.90
72086;BME280;64750;52.134;5.424;2023-08-12T11:05:38;101665.19;;;20.38;82.31
72086;BME280;64750;52.134;5.424;2023-08-12T11:08:05;101684.75;;;20.38;79.61
72086;BME280;64750;52.134;5.424;2023-08-12T11:10:33;101671.94;;;20.42;80.86
72086;BME280;64750;52.134;5.424;2023-08-12T11:13:01;101667.75;;;20.49;79.80
72086;BME280;64750;52.134;5.424;2023-08-12T11:18:09;101671.00;;;20.62;80.98
72086;BME280;64750;52.134;5.424;2023-08-12T11:20:36;101671.44;;;20.68;80.52
72086;BME280;64750;52.134;5.424;2023-08-12T11:23:04;101670.22;;;20.72;78.59
72086;BME280;64750;52.134;5.424;2023-08-12T11:25:32;101664.88;;;20.72;79.37
72086;BME280;64750;52.134;5.424;2023-08-12T11:27:59;101665.03;;;20.80;79.17
72086;BME280;64750;52.134;5.424;2023-08-12T11:30:26;101651.53;;;20.91;77.78
72086;BME280;64750;52.134;5.424;2023-08-12T11:32:55;101656.88;;;20.91;76.22
72086;BME280;64750;52.134;5.424;2023-08-12T11:35:23;101661.66;;;20.97;73.99
72086;BME280;64750;52.134;5.424;2023-08-12T11:37:52;101668.81;;;21.07;74.23
72086;BME280;64750;52.134;5.424;2023-08-12T11:40:22;101661.09;;;21.13;71.91
72086;BME280;64750;52.134;5.424;2023-08-12T11:42:50;101664.75;;;21.12;71.47
72086;BME280;64750;52.134;5.424;2023-08-12T11:45:22;101667.72;;;21.19;70.97
72086;BME280;64750;52.134;5.424;2023-08-12T11:47:49;101666.13;;;21.26;71.96
72086;BME280;64750;52.134;5.424;2023-08-12T11:50:24;101662.22;;;21.30;72.36
72086;BME280;64750;52.134;5.424;2023-08-12T11:52:51;101658.81;;;21.38;74.16
72086;BME280;64750;52.134;5.424;2023-08-12T11:55:18;101662.44;;;21.47;73.78
72086;BME280;64750;52.134;5.424;2023-08-12T11:57:45;101662.84;;;21.52;72.86
72086;BME280;64750;52.134;5.424;2023-08-12T12:00:12;101663.56;;;21.54;71.96
72086;BME280;64750;52.134;5.424;2023-08-12T12:05:21;101661.59;;;21.66;71.67
72086;BME280;64750;52.134;5.424;2023-08-12T12:07:50;101663.84;;;21.71;71.21
72086;BME280;64750;52.134;5.424;2023-08-12T12:10:26;101669.34;;;21.69;70.87
72086;BME280;64750;52.134;5.424;2023-08-12T12:12:59;101669.19;;;21.71;71.92
72086;BME280;64750;52.134;5.424;2023-08-12T12:15:26;101671.44;;;21.75;71.34
72086;BME280;64750;52.134;5.424;2023-08-12T12:17:52;101681.00;;;21.78;71.56
72086;BME280;64750;52.134;5.424;2023-08-12T12:20:19;101662.78;;;21.82;67.43
72086;BME280;64750;52.134;5.424;2023-08-12T12:22:48;101670.25;;;21.88;68.33
72086;BME280;64750;52.134;5.424;2023-08-12T12:25:16;101666.56;;;21.99;69.53
72086;BME280;64750;52.134;5.424;2023-08-12T12:27:46;101660.63;;;22.05;65.31
72086;BME280;64750;52.134;5.424;2023-08-12T12:30:14;101665.97;;;22.05;65.95
72086;BME280;64750;52.134;5.424;2023-08-12T12:32:40;101666.38;;;22.10;66.31
72086;BME280;64750;52.134;5.424;2023-08-12T12:35:07;101671.81;;;22.18;67.29
72086;BME280;64750;52.134;5.424;2023-08-12T12:37:35;101669.09;;;22.28;67.86
72086;BME280;64750;52.134;5.424;2023-08-12T12:40:03;101675.44;;;22.27;67.42
72086;BME280;64750;52.134;5.424;2023-08-12T12:42:30;101678.94;;;22.27;67.87
72086;BME280;64750;52.134;5.424;2023-08-12T12:44:57;101673.00;;;22.34;67.27
72086;BME280;64750;52.134;5.424;2023-08-12T12:47:23;101677.09;;;22.38;67.27
72086;BME280;64750;52.134;5.424;2023-08-12T12:49:50;101673.00;;;22.34;65.70
72086;BME280;64750;52.134;5.424;2023-08-12T12:52:17;101673.97;;;22.33;66.91
72086;BME280;64750;52.134;5.424;2023-08-12T12:54:43;101664.69;;;22.37;66.25
72086;BME280;64750;52.134;5.424;2023-08-12T12:57:10;101668.78;;;22.41;66.33
72086;BME280;64750;52.134;5.424;2023-08-12T12:59:36;101669.84;;;22.48;66.22
72086;BME280;64750;52.134;5.424;2023-08-12T13:02:02;101669.56;;;22.51;66.75
72086;BME280;64750;52.134;5.424;2023-08-12T13:04:29;101666.28;;;22.57;66.42